sensor_id;sensor_type;location;lat;lon;timestamp;P1;durP1;ratioP1;P2;durP2;ratioP2
5622;SDS011;2833;50.432;10.706;2024-03-02T00:01:49;40.67;;;17.93;;
5622;SDS011;2833;50.432;10.706;2024-03-02T00:04:15;37.57;;;18.87;;
5622;SDS011;2833;50.432;10.706;2024-03-02T00:06:40;40.83;;;18.70;;
5622;SDS011;2833;50.432;10.706;2024-03-02T00:09:05;46.00;;;20.27;;
5622;SDS011;2833;50.432;10.706;2024-03-02T00:11:31;38.37;;;19.67;;
5622;SDS011;2833;50.432;10.706;2024-03-02T00:13:59;38.63;;;18.07;;
5622;SDS011;2833;50.432;10.706;2024-03-02T00:16:28;44.73;;;21.17;;
5622;SDS011;2833;50.432;10.706;2024-03-02T00:18:54;45.17;;;20.50;;
5622;SDS011;2833;50.432;10.706;2024-03-02T00:21:19;39.73;;;20.03;;
5622;SDS011;2833;50.432;10.706;2024-03-02T00:23:47;44.03;;;19.93;;
5622;SDS011;2833;50.432;10.706;2024-03-02T00:26:13;39.73;;;18.53;;
5622;SDS011;2833;50.432;10.706;2024-03-02T00:28:39;43.30;;;20.77;;
5622;SDS011;2833;50.432;10.706;2024-03-02T00:31:05;41.53;;;20.07;;
5622;SDS011;2833;50.432;10.706;2024-03-02T00:33:32;44.13;;;20.00;;
5622;SDS011;2833;50.432;10.706;2024-03-02T00:35:57;38.83;;;19.47;;
5622;SDS011;2833;50.432;10.706;2024-03-02T00:38:22;37.23;;;19.07;;
5622;SDS011;2833;50.432;10.706;2024-03-02T00:40:48;38.57;;;19.67;;
5622;SDS011;2833;50.432;10.706;2024-03-02T00:43:38;39.70;;;19.40;;
5622;SDS011;2833;50.432;10.706;2024-03-02T00:45:58;32.90;;;17.60;;
5622;SDS011;2833;50.432;10.706;2024-03-02T00:48:24;34.10;;;18.03;;
5622;SDS011;2833;50.432;10.706;2024-03-02T00:50:52;43.57;;;19.70;;
5622;SDS011;2833;50.432;10.706;2024-03-02T00:53:17;39.90;;;19.23;;
5622;SDS011;2833;50.432;10.706;2024-03-02T00:55:46;37.60;;;18.30;;
5622;SDS011;2833;50.432;10.706;2024-03-02T00:58:13;42.33;;;19.57;;
5622;SDS011;2833;50.432;10.706;2024-03-02T01:00:38;39.47;;;19.20;;
5622;SDS011;2833;50.432;10.706;2024-03-02T01:03:03;39.40;;;18.07;;
5622;SDS011;2833;50.432;10.706;2024-03-02T01:05:29;36.37;;;18.37;;
5622;SDS011;2833;50.432;10.706;2024-03-02T01:07:54;37.50;;;18.73;;
5622;SDS011;2833;50.432;10.706;2024-03-02T01:10:19;41.80;;;19.73;;
5622;SDS011;2833;50.432;10.706;2024-03-02T01:12:45;40.90;;;19.33;;
5622;SDS011;2833;50.432;10.706;2024-03-02T01:15:10;38.83;;;19.17;;
5622;SDS011;2833;50.432;10.706;2024-03-02T01:17:36;42.83;;;19.67;;
5622;SDS011;2833;50.432;10.706;2024-03-02T01:20:01;35.70;;;18.30;;
5622;SDS011;2833;50.432;10.706;2024-03-02T01:22:26;46.93;;;20.33;;
5622;SDS011;2833;50.432;10.706;2024-03-02T01:24:51;40.97;;;18.93;;
5622;SDS011;2833;50.432;10.706;2024-03-02T01:27:17;37.97;;;19.40;;
5622;SDS011;2833;50.432;10.706;2024-03-02T01:29:42;38.40;;;19.13;;
5622;SDS011;2833;50.432;10.706;2024-03-02T01:32:07;39.47;;;20.10;;
5622;SDS011;2833;50.432;10.706;2024-03-02T01:34:32;41.00;;;18.90;;
5622;SDS011;2833;50.432;10.706;2024-03-02T01:36:57;39.40;;;19.50;;
5622;SDS011;2833;50.432;10.706;2024-03-02T01:39:23;43.87;;;20.07;;
5622;SDS011;2833;50.432;10.706;2024-03-02T01:41:48;45.23;;;19.20;;
5622;SDS011;2833;50.432;10.706;2024-03-02T01:44:13;36.10;;;19.23;;
5622;SDS011;2833;50.432;10.706;2024-03-02T01:46:38;41.47;;;19.73;;
5622;SDS011;2833;50.432;10.706;2024-03-02T01:49:03;39.43;;;19.20;;
5622;SDS011;2833;50.432;10.706;2024-03-02T01:51:29;42.50;;;19.37;;
5622;SDS011;2833;50.432;10.706;2024-03-02T01:53:54;43.13;;;20.37;;
5622;SDS011;2833;50.432;10.706;2024-03-02T01:56:20;37.77;;;18.27;;
5622;SDS011;2833;50.432;10.706;2024-03-02T01:58:45;37.83;;;18.10;;
5622;SDS011;2833;50.432;10.706;2024-03-02T02:01:10;32.13;;;17.73;;
5622;SDS011;2833;50.432;10.706;2024-03-02T02:03:35;37.03;;;18.40;;
5622;SDS011;2833;50.432;10.706;2024-03-02T02:06:02;39.53;;;18.90;;
5622;SDS011;2833;50.432;10.706;2024-03-02T02:08:27;45.47;;;20.57;;
5622;SDS011;2833;50.432;10.706;2024-03-02T02:10:52;40.83;;;18.63;;
5622;SDS011;2833;50.432;10.706;2024-03-02T02:13:17;39.97;;;19.80;;
5622;SDS011;2833;50.432;10.706;2024-03-02T02:15:43;39.70;;;18.70;;
5622;SDS011;2833;50.432;10.706;2024-03-02T02:18:08;43.60;;;19.67;;
5622;SDS011;2833;50.432;10.706;2024-03-02T02:20:33;39.17;;;18.93;;
5622;SDS011;2833;50.432;10.706;2024-03-02T02:22:59;36.27;;;19.27;;
5622;SDS011;2833;50.432;10.706;2024-03-02T02:25:24;41.00;;;19.30;;
5622;SDS011;2833;50.432;10.706;2024-03-02T02:27:50;39.53;;;20.37;;
5622;SDS011;2833;50.432;10.706;2024-03-02T02:30:33;44.60;;;19.70;;
5622;SDS011;2833;50.432;10.706;2024-03-02T02:32:58;40.63;;;18.17;;
5622;SDS011;2833;50.432;10.706;2024-03-02T02:35:23;37.93;;;18.70;;
5622;SDS011;2833;50.432;10.706;2024-03-02T02:37:52;42.20;;;19.67;;
5622;SDS011;2833;50.432;10.706;2024-03-02T02:40:18;38.37;;;20.00;;
5622;SDS011;2833;50.432;10.706;2024-03-02T02:42:44;37.90;;;19.20;;
5622;SDS011;2833;50.432;10.706;2024-03-02T02:45:09;38.67;;;18.50;;
5622;SDS011;2833;50.432;10.706;2024-03-02T02:47:34;40.30;;;18.83;;
5622;SDS011;2833;50.432;10.706;2024-03-02T02:50:03;48.17;;;20.43;;
5622;SDS011;2833;50.432;10.706;2024-03-02T02:52:32;41.50;;;20.10;;
5622;SDS011;2833;50.432;10.706;2024-03-02T02:54:58;35.67;;;18.57;;
5622;SDS011;2833;50.432;10.706;2024-03-02T02:57:23;41.40;;;19.67;;
5622;SDS011;2833;50.432;10.706;2024-03-02T02:59:48;41.77;;;21.13;;
5622;SDS011;2833;50.432;10.706;2024-03-02T03:02:14;44.07;;;19.40;;
5622;SDS011;2833;50.432;10.706;2024-03-02T03:04:39;55.60;;;21.40;;
5622;SDS011;2833;50.432;10.706;2024-03-02T03:07:04;45.23;;;20.67;;
5622;SDS011;2833;50.432;10.706;2024-03-02T03:09:30;42.23;;;19.40;;
5622;SDS011;2833;50.432;10.706;2024-03-02T03:11:55;43.30;;;20.50;;
5622;SDS011;2833;50.432;10.706;2024-03-02T03:14:20;41.47;;;20.23;;
5622;SDS011;2833;50.432;10.706;2024-03-02T03:16:46;40.37;;;20.20;;
5622;SDS011;2833;50.432;10.706;2024-03-02T03:19:11;41.73;;;19.27;;
5622;SDS011;2833;50.432;10.706;2024-03-02T03:21:36;43.80;;;20.63;;
5622;SDS011;2833;50.432;10.706;2024-03-02T03:24:01;39.83;;;19.97;;
5622;SDS011;2833;50.432;10.706;2024-03-02T03:26:26;38.93;;;19.00;;
5622;SDS011;2833;50.432;10.706;2024-03-02T03:28:52;37.60;;;19.50;;
5622;SDS011;2833;50.432;10.706;2024-03-02T03:31:17;40.70;;;19.50;;
5622;SDS011;2833;50.432;10.706;2024-03-02T03:33:42;41.77;;;19.50;;
5622;SDS011;2833;50.432;10.706;2024-03-02T03:36:07;48.60;;;20.10;;
5622;SDS011;2833;50.432;10.706;2024-03-02T03:38:32;43.03;;;19.97;;
5622;SDS011;2833;50.432;10.706;2024-03-02T03:40:57;39.60;;;19.87;;
5622;SDS011;2833;50.432;10.706;2024-03-02T03:43:23;40.00;;;20.23;;
5622;SDS011;2833;50.432;10.706;2024-03-02T03:45:48;43.50;;;19.83;;
5622;SDS011;2833;50.432;10.706;2024-03-02T03:48:13;38.37;;;19.20;;
5622;SDS011;2833;50.432;10.706;2024-03-02T03:50:38;44.20;;;18.53;;
5622;SDS011;2833;50.432;10.706;2024-03-02T03:53:03;41.00;;;20.30;;
5622;SDS011;2833;50.432;10.706;2024-03-02T03:55:28;41.80;;;20.20;;
5622;SDS011;2833;50.432;10.706;2024-03-02T03:57:54;39.63;;;19.80;;
5622;SDS011;2833;50.432;10.706;2024-03-02T04:00:19;46.70;;;20.47;;
5622;SDS011;2833;50.432;10.706;2024-03-02T04:02:44;37.43;;;19.50;;
5622;SDS011;2833;50.432;10.706;2024-03-02T04:05:09;39.27;;;19.20;;
5622;SDS011;2833;50.432;10.706;2024-03-02T04:07:36;41.67;;;20.40;;
5622;SDS011;2833;50.432;10.706;2024-03-02T04:10:08;48.07;;;20.53;;
5622;SDS011;2833;50.432;10.706;2024-03-02T04:12:34;38.90;;;19.10;;
5622;SDS011;2833;50.432;10.706;2024-03-02T04:15:00;47.70;;;20.23;;
5622;SDS011;2833;50.432;10.706;2024-03-02T04:17:26;40.87;;;19.87;;
5622;SDS011;2833;50.432;10.706;2024-03-02T04:19:52;42.83;;;20.33;;
5622;SDS011;2833;50.432;10.706;2024-03-02T04:22:17;46.37;;;20.37;;
5622;SDS011;2833;50.432;10.706;2024-03-02T04:24:42;40.40;;;20.60;;
5622;SDS011;2833;50.432;10.706;2024-03-02T04:27:07;36.60;;;18.70;;
5622;SDS011;2833;50.432;10.706;2024-03-02T04:29:32;43.10;;;20.97;;
5622;SDS011;2833;50.432;10.706;2024-03-02T04:31:57;41.93;;;20.17;;
5622;SDS011;2833;50.432;10.706;2024-03-02T04:34:23;39.07;;;21.13;;
5622;SDS011;2833;50.432;10.706;2024-03-02T04:36:48;38.50;;;19.67;;
5622;SDS011;2833;50.432;10.706;2024-03-02T04:39:13;38.63;;;19.47;;
5622;SDS011;2833;50.432;10.706;2024-03-02T04:41:38;44.20;;;19.47;;
5622;SDS011;2833;50.432;10.706;2024-03-02T04:44:04;41.90;;;20.60;;
5622;SDS011;2833;50.432;10.706;2024-03-02T04:46:29;47.07;;;22.67;;
5622;SDS011;2833;50.432;10.706;2024-03-02T04:48:54;41.10;;;19.53;;
5622;SDS011;2833;50.432;10.706;2024-03-02T04:51:22;52.83;;;22.87;;
5622;SDS011;2833;50.432;10.706;2024-03-02T04:53:47;42.37;;;19.17;;
5622;SDS011;2833;50.432;10.706;2024-03-02T04:56:12;41.17;;;20.50;;
5622;SDS011;2833;50.432;10.706;2024-03-02T04:58:53;42.83;;;21.23;;
5622;SDS011;2833;50.432;10.706;2024-03-02T05:01:18;44.03;;;21.80;;
5622;SDS011;2833;50.432;10.706;2024-03-02T05:03:43;43.97;;;20.40;;
5622;SDS011;2833;50.432;10.706;2024-03-02T05:06:08;48.63;;;22.50;;
5622;SDS011;2833;50.432;10.706;2024-03-02T05:08:33;39.80;;;20.97;;
5622;SDS011;2833;50.432;10.706;2024-03-02T05:10:59;40.60;;;18.70;;
5622;SDS011;2833;50.432;10.706;2024-03-02T05:13:44;44.00;;;20.43;;
5622;SDS011;2833;50.432;10.706;2024-03-02T05:16:09;44.83;;;18.87;;
5622;SDS011;2833;50.432;10.706;2024-03-02T05:18:34;51.60;;;21.83;;
5622;SDS011;2833;50.432;10.706;2024-03-02T05:20:59;47.73;;;22.20;;
5622;SDS011;2833;50.432;10.706;2024-03-02T05:23:25;45.60;;;20.80;;
5622;SDS011;2833;50.432;10.706;2024-03-02T05:25:50;44.43;;;21.30;;
5622;SDS011;2833;50.432;10.706;2024-03-02T05:28:15;48.80;;;22.70;;
5622;SDS011;2833;50.432;10.706;2024-03-02T05:30:42;45.13;;;21.90;;
5622;SDS011;2833;50.432;10.706;2024-03-02T05:33:07;42.20;;;20.23;;
5622;SDS011;2833;50.432;10.706;2024-03-02T05:35:32;44.87;;;21.20;;
5622;SDS011;2833;50.432;10.706;2024-03-02T05:37:57;40.07;;;19.93;;
5622;SDS011;2833;50.432;10.706;2024-03-02T05:40:23;38.23;;;18.60;;
5622;SDS011;2833;50.432;10.706;2024-03-02T05:42:49;43.13;;;20.20;;
5622;SDS011;2833;50.432;10.706;2024-03-02T05:45:14;45.03;;;20.37;;
5622;SDS011;2833;50.432;10.706;2024-03-02T05:47:41;50.30;;;21.60;;
5622;SDS011;2833;50.432;10.706;2024-03-02T05:50:06;61.70;;;26.20;;
5622;SDS011;2833;50.432;10.706;2024-03-02T05:52:32;103.70;;;37.40;;
5622;SDS011;2833;50.432;10.706;2024-03-02T05:54:57;58.70;;;24.20;;
5622;SDS011;2833;50.432;10.706;2024-03-02T05:57:22;42.10;;;21.00;;
5622;SDS011;2833;50.432;10.706;2024-03-02T06:00:14;37.70;;;16.87;;
5622;SDS011;2833;50.432;10.706;2024-03-02T06:02:41;44.50;;;19.90;;
5622;SDS011;2833;50.432;10.706;2024-03-02T06:05:07;47.80;;;22.50;;
5622;SDS011;2833;50.432;10.706;2024-03-02T06:07:32;48.23;;;21.30;;
5622;SDS011;2833;50.432;10.706;2024-03-02T06:09:58;48.20;;;21.57;;
5622;SDS011;2833;50.432;10.706;2024-03-02T06:12:23;45.30;;;21.20;;
5622;SDS011;2833;50.432;10.706;2024-03-02T06:14:48;47.83;;;20.07;;
5622;SDS011;2833;50.432;10.706;2024-03-02T06:17:14;45.90;;;20.10;;
5622;SDS011;2833;50.432;10.706;2024-03-02T06:19:39;52.67;;;20.70;;
5622;SDS011;2833;50.432;10.706;2024-03-02T06:22:04;46.97;;;21.63;;
5622;SDS011;2833;50.432;10.706;2024-03-02T06:24:30;45.33;;;19.97;;
5622;SDS011;2833;50.432;10.706;2024-03-02T06:26:55;47.30;;;22.10;;
5622;SDS011;2833;50.432;10.706;2024-03-02T06:29:21;43.30;;;21.53;;
5622;SDS011;2833;50.432;10.706;2024-03-02T06:31:46;40.30;;;19.97;;
5622;SDS011;2833;50.432;10.706;2024-03-02T06:34:12;42.50;;;19.77;;
5622;SDS011;2833;50.432;10.706;2024-03-02T06:36:38;47.53;;;21.10;;
5622;SDS011;2833;50.432;10.706;2024-03-02T06:39:03;44.67;;;21.40;;
5622;SDS011;2833;50.432;10.706;2024-03-02T06:41:28;42.80;;;19.90;;
5622;SDS011;2833;50.432;10.706;2024-03-02T06:43:53;51.30;;;20.70;;
5622;SDS011;2833;50.432;10.706;2024-03-02T06:46:24;195.50;;;77.47;;
5622;SDS011;2833;50.432;10.706;2024-03-02T06:48:49;46.50;;;22.63;;
5622;SDS011;2833;50.432;10.706;2024-03-02T06:51:14;48.83;;;23.67;;
5622;SDS011;2833;50.432;10.706;2024-03-02T06:53:40;45.23;;;23.53;;
5622;SDS011;2833;50.432;10.706;2024-03-02T06:56:06;56.47;;;26.00;;
5622;SDS011;2833;50.432;10.706;2024-03-02T06:58:31;55.50;;;23.13;;
5622;SDS011;2833;50.432;10.706;2024-03-02T07:00:57;39.10;;;20.73;;
5622;SDS011;2833;50.432;10.706;2024-03-02T07:03:22;39.10;;;19.27;;
5622;SDS011;2833;50.432;10.706;2024-03-02T07:05:47;38.73;;;18.07;;
5622;SDS011;2833;50.432;10.706;2024-03-02T07:08:13;37.50;;;19.83;;
5622;SDS011;2833;50.432;10.706;2024-03-02T07:10:38;41.73;;;19.47;;
5622;SDS011;2833;50.432;10.706;2024-03-02T07:13:03;41.00;;;19.77;;
5622;SDS011;2833;50.432;10.706;2024-03-02T07:15:28;48.27;;;21.67;;
5622;SDS011;2833;50.432;10.706;2024-03-02T07:18:08;39.10;;;19.03;;
5622;SDS011;2833;50.432;10.706;2024-03-02T07:20:33;36.60;;;18.07;;
5622;SDS011;2833;50.432;10.706;2024-03-02T07:22:58;38.93;;;18.57;;
5622;SDS011;2833;50.432;10.706;2024-03-02T07:25:23;35.50;;;18.40;;
5622;SDS011;2833;50.432;10.706;2024-03-02T07:27:48;39.33;;;19.90;;
5622;SDS011;2833;50.432;10.706;2024-03-02T07:30:14;40.00;;;18.97;;
5622;SDS011;2833;50.432;10.706;2024-03-02T07:32:41;39.73;;;18.93;;
5622;SDS011;2833;50.432;10.706;2024-03-02T07:35:07;36.37;;;17.90;;
5622;SDS011;2833;50.432;10.706;2024-03-02T07:37:32;45.97;;;24.73;;
5622;SDS011;2833;50.432;10.706;2024-03-02T07:39:57;42.60;;;20.70;;
5622;SDS011;2833;50.432;10.706;2024-03-02T07:42:23;49.27;;;25.10;;
5622;SDS011;2833;50.432;10.706;2024-03-02T07:44:48;43.03;;;20.77;;
5622;SDS011;2833;50.432;10.706;2024-03-02T07:47:13;35.87;;;17.60;;
5622;SDS011;2833;50.432;10.706;2024-03-02T07:49:39;48.03;;;23.50;;
5622;SDS011;2833;50.432;10.706;2024-03-02T07:52:04;40.17;;;16.10;;
5622;SDS011;2833;50.432;10.706;2024-03-02T07:54:29;31.40;;;16.90;;
5622;SDS011;2833;50.432;10.706;2024-03-02T07:56:55;36.97;;;18.47;;
5622;SDS011;2833;50.432;10.706;2024-03-02T07:59:20;38.70;;;18.33;;
5622;SDS011;2833;50.432;10.706;2024-03-02T08:01:46;30.20;;;15.40;;
5622;SDS011;2833;50.432;10.706;2024-03-02T08:04:12;41.77;;;19.97;;
5622;SDS011;2833;50.432;10.706;2024-03-02T08:06:37;66.47;;;25.40;;
5622;SDS011;2833;50.432;10.706;2024-03-02T08:09:02;53.63;;;24.40;;
5622;SDS011;2833;50.432;10.706;2024-03-02T08:11:34;33.87;;;18.00;;
5622;SDS011;2833;50.432;10.706;2024-03-02T08:14:01;32.93;;;17.10;;
5622;SDS011;2833;50.432;10.706;2024-03-02T08:16:26;31.33;;;16.63;;
5622;SDS011;2833;50.432;10.706;2024-03-02T08:18:52;31.20;;;16.00;;
5622;SDS011;2833;50.432;10.706;2024-03-02T08:21:18;35.77;;;16.30;;
5622;SDS011;2833;50.432;10.706;2024-03-02T08:23:43;35.73;;;18.40;;
5622;SDS011;2833;50.432;10.706;2024-03-02T08:26:10;38.93;;;17.50;;
5622;SDS011;2833;50.432;10.706;2024-03-02T08:28:35;36.23;;;18.13;;
5622;SDS011;2833;50.432;10.706;2024-03-02T08:31:07;37.80;;;16.27;;
5622;SDS011;2833;50.432;10.706;2024-03-02T08:33:33;27.80;;;14.07;;
5622;SDS011;2833;50.432;10.706;2024-03-02T08:35:58;27.87;;;14.60;;
5622;SDS011;2833;50.432;10.706;2024-03-02T08:38:23;31.10;;;15.50;;
5622;SDS011;2833;50.432;10.706;2024-03-02T08:40:49;31.60;;;15.77;;
5622;SDS011;2833;50.432;10.706;2024-03-02T08:43:14;30.20;;;16.60;;
5622;SDS011;2833;50.432;10.706;2024-03-02T08:45:40;29.60;;;15.67;;
5622;SDS011;2833;50.432;10.706;2024-03-02T08:48:06;25.50;;;13.63;;
5622;SDS011;2833;50.432;10.706;2024-03-02T08:50:32;31.80;;;14.57;;
5622;SDS011;2833;50.432;10.706;2024-03-02T08:52:57;31.43;;;15.60;;
5622;SDS011;2833;50.432;10.706;2024-03-02T08:55:22;41.10;;;17.30;;
5622;SDS011;2833;50.432;10.706;2024-03-02T08:57:47;36.03;;;17.20;;
5622;SDS011;2833;50.432;10.706;2024-03-02T09:00:15;43.57;;;21.57;;
5622;SDS011;2833;50.432;10.706;2024-03-02T09:02:42;150.47;;;62.07;;
5622;SDS011;2833;50.432;10.706;2024-03-02T09:05:08;132.43;;;59.53;;
5622;SDS011;2833;50.432;10.706;2024-03-02T09:07:33;76.87;;;36.47;;
5622;SDS011;2833;50.432;10.706;2024-03-02T09:09:58;36.20;;;18.53;;
5622;SDS011;2833;50.432;10.706;2024-03-02T09:12:24;35.37;;;19.20;;
5622;SDS011;2833;50.432;10.706;2024-03-02T09:14:49;35.63;;;17.70;;
5622;SDS011;2833;50.432;10.706;2024-03-02T09:17:14;30.63;;;17.00;;
5622;SDS011;2833;50.432;10.706;2024-03-02T09:19:39;35.70;;;19.60;;
5622;SDS011;2833;50.432;10.706;2024-03-02T09:22:06;29.07;;;16.60;;
5622;SDS011;2833;50.432;10.706;2024-03-02T09:24:31;24.13;;;12.60;;
5622;SDS011;2833;50.432;10.706;2024-03-02T09:26:56;33.50;;;16.60;;
5622;SDS011;2833;50.432;10.706;2024-03-02T09:29:21;26.17;;;14.60;;
5622;SDS011;2833;50.432;10.706;2024-03-02T09:31:47;29.97;;;16.87;;
5622;SDS011;2833;50.432;10.706;2024-03-02T09:34:12;53.77;;;29.63;;
5622;SDS011;2833;50.432;10.706;2024-03-02T09:36:37;26.60;;;11.30;;
5622;SDS011;2833;50.432;10.706;2024-03-02T09:39:02;26.20;;;14.37;;
5622;SDS011;2833;50.432;10.706;2024-03-02T09:41:28;29.53;;;14.70;;
5622;SDS011;2833;50.432;10.706;2024-03-02T09:43:54;29.00;;;12.90;;
5622;SDS011;2833;50.432;10.706;2024-03-02T09:46:19;24.40;;;13.40;;
5622;SDS011;2833;50.432;10.706;2024-03-02T09:48:45;32.70;;;16.37;;
5622;SDS011;2833;50.432;10.706;2024-03-02T09:51:10;27.60;;;13.97;;
5622;SDS011;2833;50.432;10.706;2024-03-02T09:53:35;30.00;;;14.80;;
5622;SDS011;2833;50.432;10.706;2024-03-02T09:56:01;24.07;;;12.70;;
5622;SDS011;2833;50.432;10.706;2024-03-02T09:58:26;33.97;;;18.60;;
5622;SDS011;2833;50.432;10.706;2024-03-02T10:00:51;33.20;;;17.57;;
5622;SDS011;2833;50.432;10.706;2024-03-02T10:03:17;40.53;;;18.60;;
5622;SDS011;2833;50.432;10.706;2024-03-02T10:05:43;41.80;;;17.90;;
5622;SDS011;2833;50.432;10.706;2024-03-02T10:08:08;30.97;;;14.77;;
5622;SDS011;2833;50.432;10.706;2024-03-02T10:10:34;28.27;;;15.60;;
5622;SDS011;2833;50.432;10.706;2024-03-02T10:13:09;32.90;;;17.80;;
5622;SDS011;2833;50.432;10.706;2024-03-02T10:15:35;32.50;;;16.27;;
5622;SDS011;2833;50.432;10.706;2024-03-02T10:18:00;29.50;;;14.10;;
5622;SDS011;2833;50.432;10.706;2024-03-02T10:20:26;24.63;;;11.83;;
5622;SDS011;2833;50.432;10.706;2024-03-02T10:22:53;29.80;;;16.60;;
5622;SDS011;2833;50.432;10.706;2024-03-02T10:25:31;25.10;;;14.40;;
5622;SDS011;2833;50.432;10.706;2024-03-02T10:27:59;27.30;;;15.40;;
5622;SDS011;2833;50.432;10.706;2024-03-02T10:30:25;33.20;;;18.03;;
5622;SDS011;2833;50.432;10.706;2024-03-02T10:32:51;29.03;;;14.90;;
5622;SDS011;2833;50.432;10.706;2024-03-02T10:35:17;25.90;;;13.37;;
5622;SDS011;2833;50.432;10.706;2024-03-02T10:37:42;29.50;;;15.93;;
5622;SDS011;2833;50.432;10.706;2024-03-02T10:40:09;28.93;;;16.10;;
5622;SDS011;2833;50.432;10.706;2024-03-02T10:42:35;27.83;;;15.97;;
5622;SDS011;2833;50.432;10.706;2024-03-02T10:45:01;34.43;;;16.37;;
5622;SDS011;2833;50.432;10.706;2024-03-02T10:47:26;43.90;;;22.80;;
5622;SDS011;2833;50.432;10.706;2024-03-02T10:49:52;43.17;;;21.13;;
5622;SDS011;2833;50.432;10.706;2024-03-02T10:52:17;58.03;;;24.70;;
5622;SDS011;2833;50.432;10.706;2024-03-02T10:54:43;52.60;;;24.43;;
5622;SDS011;2833;50.432;10.706;2024-03-02T10:57:08;66.00;;;31.77;;
5622;SDS011;2833;50.432;10.706;2024-03-02T10:59:35;81.47;;;40.37;;
5622;SDS011;2833;50.432;10.706;2024-03-02T11:02:02;75.63;;;35.80;;
5622;SDS011;2833;50.432;10.706;2024-03-02T11:04:28;33.40;;;19.57;;
5622;SDS011;2833;50.432;10.706;2024-03-02T11:06:59;28.90;;;16.70;;
5622;SDS011;2833;50.432;10.706;2024-03-02T11:09:25;37.90;;;20.10;;
5622;SDS011;2833;50.432;10.706;2024-03-02T11:14:30;57.23;;;22.37;;
5622;SDS011;2833;50.432;10.706;2024-03-02T11:16:56;43.27;;;20.70;;
5622;SDS011;2833;50.432;10.706;2024-03-02T11:19:22;53.87;;;25.17;;
5622;SDS011;2833;50.432;10.706;2024-03-02T11:21:47;39.00;;;17.87;;
5622;SDS011;2833;50.432;10.706;2024-03-02T11:24:28;22.40;;;12.50;;
5622;SDS011;2833;50.432;10.706;2024-03-02T11:26:57;39.50;;;20.37;;
5622;SDS011;2833;50.432;10.706;2024-03-02T11:29:42;29.07;;;16.70;;
5622;SDS011;2833;50.432;10.706;2024-03-02T11:32:20;33.67;;;18.80;;
5622;SDS011;2833;50.432;10.706;2024-03-02T11:34:46;23.93;;;10.77;;
5622;SDS011;2833;50.432;10.706;2024-03-02T11:37:12;22.50;;;13.10;;
5622;SDS011;2833;50.432;10.706;2024-03-02T11:39:39;27.57;;;13.83;;
5622;SDS011;2833;50.432;10.706;2024-03-02T11:42:07;21.77;;;11.97;;
5622;SDS011;2833;50.432;10.706;2024-03-02T11:44:34;24.33;;;13.60;;
5622;SDS011;2833;50.432;10.706;2024-03-02T11:47:00;25.87;;;13.17;;
5622;SDS011;2833;50.432;10.706;2024-03-02T11:49:38;22.97;;;12.77;;
5622;SDS011;2833;50.432;10.706;2024-03-02T11:52:04;25.17;;;13.70;;
5622;SDS011;2833;50.432;10.706;2024-03-02T11:54:29;25.93;;;13.80;;
5622;SDS011;2833;50.432;10.706;2024-03-02T11:56:55;23.60;;;12.83;;
5622;SDS011;2833;50.432;10.706;2024-03-02T11:59:21;19.37;;;10.67;;
5622;SDS011;2833;50.432;10.706;2024-03-02T12:01:46;18.87;;;11.30;;
5622;SDS011;2833;50.432;10.706;2024-03-02T12:04:12;21.07;;;10.80;;
5622;SDS011;2833;50.432;10.706;2024-03-02T12:06:38;21.33;;;11.10;;
5622;SDS011;2833;50.432;10.706;2024-03-02T12:09:03;20.13;;;10.53;;
5622;SDS011;2833;50.432;10.706;2024-03-02T12:11:28;23.60;;;11.80;;
5622;SDS011;2833;50.432;10.706;2024-03-02T12:13:53;19.87;;;10.90;;
5622;SDS011;2833;50.432;10.706;2024-03-02T12:16:24;19.00;;;9.97;;
5622;SDS011;2833;50.432;10.706;2024-03-02T12:18:49;21.97;;;10.13;;
5622;SDS011;2833;50.432;10.706;2024-03-02T12:21:14;17.90;;;9.53;;
5622;SDS011;2833;50.432;10.706;2024-03-02T12:23:40;19.13;;;10.97;;
5622;SDS011;2833;50.432;10.706;2024-03-02T12:26:05;18.00;;;10.80;;
5622;SDS011;2833;50.432;10.706;2024-03-02T12:28:31;22.23;;;10.67;;
5622;SDS011;2833;50.432;10.706;2024-03-02T12:30:57;25.33;;;12.63;;
5622;SDS011;2833;50.432;10.706;2024-03-02T12:33:22;16.97;;;10.40;;
5622;SDS011;2833;50.432;10.706;2024-03-02T12:35:48;17.77;;;9.17;;
5622;SDS011;2833;50.432;10.706;2024-03-02T12:38:14;14.90;;;8.20;;
5622;SDS011;2833;50.432;10.706;2024-03-02T12:40:39;18.53;;;11.00;;
5622;SDS011;2833;50.432;10.706;2024-03-02T12:43:05;15.43;;;9.27;;
5622;SDS011;2833;50.432;10.706;2024-03-02T12:45:30;16.80;;;7.70;;
5622;SDS011;2833;50.432;10.706;2024-03-02T12:47:55;19.27;;;10.53;;
5622;SDS011;2833;50.432;10.706;2024-03-02T12:50:21;15.27;;;8.30;;
5622;SDS011;2833;50.432;10.706;2024-03-02T12:52:55;17.00;;;8.90;;
5622;SDS011;2833;50.432;10.706;2024-03-02T12:55:21;18.57;;;10.30;;
5622;SDS011;2833;50.432;10.706;2024-03-02T12:57:47;22.50;;;10.20;;
5622;SDS011;2833;50.432;10.706;2024-03-02T13:00:12;18.67;;;9.00;;
5622;SDS011;2833;50.432;10.706;2024-03-02T13:02:40;16.40;;;8.63;;
5622;SDS011;2833;50.432;10.706;2024-03-02T13:05:06;20.60;;;11.20;;
5622;SDS011;2833;50.432;10.706;2024-03-02T13:07:31;13.37;;;7.60;;
5622;SDS011;2833;50.432;10.706;2024-03-02T13:09:58;17.53;;;9.43;;
5622;SDS011;2833;50.432;10.706;2024-03-02T13:12:24;23.73;;;10.10;;
5622;SDS011;2833;50.432;10.706;2024-03-02T13:14:52;17.97;;;10.03;;
5622;SDS011;2833;50.432;10.706;2024-03-02T13:17:18;19.03;;;9.47;;
5622;SDS011;2833;50.432;10.706;2024-03-02T13:19:50;16.70;;;8.57;;
5622;SDS011;2833;50.432;10.706;2024-03-02T13:22:16;21.10;;;10.63;;
5622;SDS011;2833;50.432;10.706;2024-03-02T13:24:41;14.23;;;9.20;;
5622;SDS011;2833;50.432;10.706;2024-03-02T13:27:07;19.13;;;10.90;;
5622;SDS011;2833;50.432;10.706;2024-03-02T13:29:32;16.73;;;10.40;;
5622;SDS011;2833;50.432;10.706;2024-03-02T13:31:58;18.60;;;9.40;;
5622;SDS011;2833;50.432;10.706;2024-03-02T13:34:23;14.40;;;8.80;;
5622;SDS011;2833;50.432;10.706;2024-03-02T13:36:49;19.80;;;11.00;;
5622;SDS011;2833;50.432;10.706;2024-03-02T13:39:14;17.37;;;10.77;;
5622;SDS011;2833;50.432;10.706;2024-03-02T13:41:40;16.87;;;9.23;;
5622;SDS011;2833;50.432;10.706;2024-03-02T13:44:05;15.87;;;7.00;;
5622;SDS011;2833;50.432;10.706;2024-03-02T13:46:30;20.03;;;9.10;;
5622;SDS011;2833;50.432;10.706;2024-03-02T13:48:56;18.80;;;9.87;;
5622;SDS011;2833;50.432;10.706;2024-03-02T13:51:22;13.33;;;8.80;;
5622;SDS011;2833;50.432;10.706;2024-03-02T13:53:47;18.03;;;9.20;;
5622;SDS011;2833;50.432;10.706;2024-03-02T13:56:12;23.53;;;9.13;;
5622;SDS011;2833;50.432;10.706;2024-03-02T13:58:37;34.23;;;13.70;;
5622;SDS011;2833;50.432;10.706;2024-03-02T14:01:03;21.00;;;10.93;;
5622;SDS011;2833;50.432;10.706;2024-03-02T14:03:29;17.20;;;10.67;;
5622;SDS011;2833;50.432;10.706;2024-03-02T14:05:54;17.53;;;9.03;;
5622;SDS011;2833;50.432;10.706;2024-03-02T14:08:20;14.70;;;9.40;;
5622;SDS011;2833;50.432;10.706;2024-03-02T14:10:45;17.33;;;9.67;;
5622;SDS011;2833;50.432;10.706;2024-03-02T14:13:11;16.77;;;9.33;;
5622;SDS011;2833;50.432;10.706;2024-03-02T14:15:36;16.10;;;10.00;;
5622;SDS011;2833;50.432;10.706;2024-03-02T14:18:04;17.30;;;10.23;;
5622;SDS011;2833;50.432;10.706;2024-03-02T14:20:29;18.37;;;10.17;;
5622;SDS011;2833;50.432;10.706;2024-03-02T14:22:55;18.63;;;10.23;;
5622;SDS011;2833;50.432;10.706;2024-03-02T14:25:20;22.27;;;8.57;;
5622;SDS011;2833;50.432;10.706;2024-03-02T14:27:45;17.47;;;9.20;;
5622;SDS011;2833;50.432;10.706;2024-03-02T14:30:11;20.13;;;10.00;;
5622;SDS011;2833;50.432;10.706;2024-03-02T14:32:36;17.73;;;9.80;;